Terminal Aerodrome Forecast
Issued by NWS

Home | Current Version | Previous Version | Text Only | Print | Product List | Glossary On
Versions: 1 2 3 4 5 6 7 8 9 10 11 12 13 14 15 16 17 18 19 20 21 22 23 24
451
FTUS43 KGRR 210839 AAB
TAFMKG
TAF AMD
KMKG 210839Z 2109/2206 VRB03KT P6SM BKN150
     FM211200 10008KT P6SM VCSH OVC080
     FM211500 11011KT 5SM SHRA OVC025
     FM212100 09011KT 3SM SHRA OVC015
     FM220000 08011KT P6SM OVC008
     FM220300 09013KT 4SM BR OVC010=

USA.gov is the U.S. government's official web portal to all federal, state and local government web resources and services.